sensor_id;sensor_type;location;lat;lon;timestamp;P1;durP1;ratioP1;P2;durP2;ratioP2
36457;SDS011;22480;50.546;12.292;2023-04-01T00:00:29;2.90;;;1.05;;
36457;SDS011;22480;50.546;12.292;2023-04-01T00:02:55;5.88;;;0.82;;
36457;SDS011;22480;50.546;12.292;2023-04-01T00:05:21;2.42;;;0.90;;
36457;SDS011;22480;50.546;12.292;2023-04-01T00:07:49;1.85;;;0.80;;
36457;SDS011;22480;50.546;12.292;2023-04-01T00:10:15;4.43;;;0.75;;
36457;SDS011;22480;50.546;12.292;2023-04-01T00:12:42;3.70;;;1.02;;
36457;SDS011;22480;50.546;12.292;2023-04-01T00:15:09;4.65;;;1.40;;
36457;SDS011;22480;50.546;12.292;2023-04-01T00:17:36;3.03;;;1.15;;
36457;SDS011;22480;50.546;12.292;2023-04-01T00:20:03;4.63;;;1.20;;
36457;SDS011;22480;50.546;12.292;2023-04-01T00:22:29;2.50;;;0.90;;
36457;SDS011;22480;50.546;12.292;2023-04-01T00:24:55;4.50;;;1.05;;
36457;SDS011;22480;50.546;12.292;2023-04-01T00:27:21;6.85;;;1.23;;
36457;SDS011;22480;50.546;12.292;2023-04-01T00:29:46;4.85;;;1.05;;
36457;SDS011;22480;50.546;12.292;2023-04-01T00:32:15;3.35;;;0.90;;
36457;SDS011;22480;50.546;12.292;2023-04-01T00:34:41;2.85;;;1.00;;
36457;SDS011;22480;50.546;12.292;2023-04-01T00:37:07;4.70;;;1.10;;
36457;SDS011;22480;50.546;12.292;2023-04-01T00:39:33;7.50;;;1.52;;
36457;SDS011;22480;50.546;12.292;2023-04-01T00:42:00;2.35;;;0.82;;
36457;SDS011;22480;50.546;12.292;2023-04-01T00:44:28;1.88;;;0.80;;
36457;SDS011;22480;50.546;12.292;2023-04-01T00:46:57;3.75;;;1.05;;
36457;SDS011;22480;50.546;12.292;2023-04-01T00:49:23;4.47;;;1.23;;
36457;SDS011;22480;50.546;12.292;2023-04-01T00:51:54;3.88;;;1.20;;
36457;SDS011;22480;50.546;12.292;2023-04-01T00:54:22;3.67;;;1.17;;
36457;SDS011;22480;50.546;12.292;2023-04-01T00:56:58;5.20;;;1.27;;
36457;SDS011;22480;50.546;12.292;2023-04-01T00:59:31;6.43;;;1.45;;
36457;SDS011;22480;50.546;12.292;2023-04-01T01:02:01;3.67;;;1.85;;
36457;SDS011;22480;50.546;12.292;2023-04-01T01:04:31;6.32;;;1.80;;
36457;SDS011;22480;50.546;12.292;2023-04-01T01:10:03;4.38;;;1.10;;
36457;SDS011;22480;50.546;12.292;2023-04-01T01:13:00;4.07;;;1.67;;
36457;SDS011;22480;50.546;12.292;2023-04-01T01:15:36;6.10;;;1.63;;
36457;SDS011;22480;50.546;12.292;2023-04-01T01:37:47;4.15;;;1.15;;
36457;SDS011;22480;50.546;12.292;2023-04-01T01:40:19;4.20;;;1.67;;
36457;SDS011;22480;50.546;12.292;2023-04-01T01:42:48;3.75;;;1.20;;
36457;SDS011;22480;50.546;12.292;2023-04-01T01:45:18;9.18;;;1.33;;
36457;SDS011;22480;50.546;12.292;2023-04-01T01:47:46;3.83;;;1.08;;
36457;SDS011;22480;50.546;12.292;2023-04-01T01:50:14;4.57;;;1.00;;
36457;SDS011;22480;50.546;12.292;2023-04-01T01:52:40;5.10;;;1.80;;
36457;SDS011;22480;50.546;12.292;2023-04-01T01:57:57;10.25;;;2.25;;
36457;SDS011;22480;50.546;12.292;2023-04-01T02:00:26;2.42;;;0.95;;
36457;SDS011;22480;50.546;12.292;2023-04-01T02:02:53;5.47;;;1.73;;
36457;SDS011;22480;50.546;12.292;2023-04-01T02:05:23;4.75;;;0.90;;
36457;SDS011;22480;50.546;12.292;2023-04-01T02:08:04;4.88;;;1.02;;
36457;SDS011;22480;50.546;12.292;2023-04-01T02:10:35;2.95;;;1.00;;
36457;SDS011;22480;50.546;12.292;2023-04-01T02:15:35;3.58;;;0.93;;
36457;SDS011;22480;50.546;12.292;2023-04-01T02:18:06;5.40;;;1.10;;
36457;SDS011;22480;50.546;12.292;2023-04-01T02:20:33;3.05;;;0.80;;
36457;SDS011;22480;50.546;12.292;2023-04-01T02:23:01;2.60;;;1.00;;
36457;SDS011;22480;50.546;12.292;2023-04-01T02:25:29;3.38;;;0.80;;
36457;SDS011;22480;50.546;12.292;2023-04-01T02:27:59;1.88;;;0.85;;
36457;SDS011;22480;50.546;12.292;2023-04-01T02:30:27;3.53;;;0.85;;
36457;SDS011;22480;50.546;12.292;2023-04-01T02:32:54;3.08;;;0.70;;
36457;SDS011;22480;50.546;12.292;2023-04-01T02:35:22;4.72;;;0.88;;
36457;SDS011;22480;50.546;12.292;2023-04-01T02:37:48;4.88;;;1.13;;
36457;SDS011;22480;50.546;12.292;2023-04-01T02:40:15;3.70;;;0.90;;
36457;SDS011;22480;50.546;12.292;2023-04-01T02:42:41;4.55;;;0.70;;
36457;SDS011;22480;50.546;12.292;2023-04-01T02:45:07;4.82;;;0.75;;
36457;SDS011;22480;50.546;12.292;2023-04-01T02:47:34;3.67;;;0.90;;
36457;SDS011;22480;50.546;12.292;2023-04-01T02:50:00;3.13;;;0.90;;
36457;SDS011;22480;50.546;12.292;2023-04-01T02:52:26;2.22;;;0.90;;
36457;SDS011;22480;50.546;12.292;2023-04-01T02:54:53;5.75;;;1.00;;
36457;SDS011;22480;50.546;12.292;2023-04-01T02:57:20;2.90;;;1.02;;
36457;SDS011;22480;50.546;12.292;2023-04-01T02:59:46;2.78;;;0.98;;
36457;SDS011;22480;50.546;12.292;2023-04-01T03:02:12;4.65;;;0.98;;
36457;SDS011;22480;50.546;12.292;2023-04-01T03:04:38;2.92;;;1.10;;
36457;SDS011;22480;50.546;12.292;2023-04-01T03:07:04;5.90;;;1.05;;
36457;SDS011;22480;50.546;12.292;2023-04-01T03:09:30;2.88;;;0.90;;
36457;SDS011;22480;50.546;12.292;2023-04-01T03:11:56;4.57;;;0.85;;
36457;SDS011;22480;50.546;12.292;2023-04-01T03:14:22;4.30;;;1.48;;
36457;SDS011;22480;50.546;12.292;2023-04-01T03:16:47;4.57;;;1.02;;
36457;SDS011;22480;50.546;12.292;2023-04-01T03:19:13;4.22;;;0.80;;
36457;SDS011;22480;50.546;12.292;2023-04-01T03:21:39;2.50;;;0.93;;
36457;SDS011;22480;50.546;12.292;2023-04-01T03:24:05;2.55;;;0.70;;
36457;SDS011;22480;50.546;12.292;2023-04-01T03:26:33;1.83;;;0.90;;
36457;SDS011;22480;50.546;12.292;2023-04-01T03:28:59;4.78;;;0.95;;
36457;SDS011;22480;50.546;12.292;2023-04-01T03:31:24;4.35;;;1.10;;
36457;SDS011;22480;50.546;12.292;2023-04-01T03:33:54;3.35;;;1.00;;
36457;SDS011;22480;50.546;12.292;2023-04-01T03:36:21;2.53;;;1.00;;
36457;SDS011;22480;50.546;12.292;2023-04-01T03:38:47;2.05;;;0.75;;
36457;SDS011;22480;50.546;12.292;2023-04-01T03:41:18;5.22;;;1.00;;
36457;SDS011;22480;50.546;12.292;2023-04-01T03:43:44;2.47;;;0.98;;
36457;SDS011;22480;50.546;12.292;2023-04-01T03:46:10;4.18;;;0.93;;
36457;SDS011;22480;50.546;12.292;2023-04-01T03:48:36;8.43;;;1.75;;
36457;SDS011;22480;50.546;12.292;2023-04-01T03:51:06;6.65;;;0.80;;
36457;SDS011;22480;50.546;12.292;2023-04-01T03:53:32;6.03;;;1.20;;
36457;SDS011;22480;50.546;12.292;2023-04-01T03:56:07;3.63;;;1.05;;
36457;SDS011;22480;50.546;12.292;2023-04-01T03:58:35;3.15;;;0.98;;
36457;SDS011;22480;50.546;12.292;2023-04-01T04:01:02;6.43;;;1.40;;
36457;SDS011;22480;50.546;12.292;2023-04-01T04:03:30;3.88;;;0.88;;
36457;SDS011;22480;50.546;12.292;2023-04-01T04:05:56;9.70;;;1.13;;
36457;SDS011;22480;50.546;12.292;2023-04-01T04:08:22;5.65;;;1.30;;
36457;SDS011;22480;50.546;12.292;2023-04-01T04:10:54;8.20;;;0.90;;
36457;SDS011;22480;50.546;12.292;2023-04-01T04:13:21;2.38;;;0.77;;
36457;SDS011;22480;50.546;12.292;2023-04-01T04:15:53;8.50;;;1.98;;
36457;SDS011;22480;50.546;12.292;2023-04-01T04:18:19;4.20;;;0.82;;
36457;SDS011;22480;50.546;12.292;2023-04-01T04:20:45;3.42;;;0.70;;
36457;SDS011;22480;50.546;12.292;2023-04-01T04:23:16;2.50;;;0.90;;
36457;SDS011;22480;50.546;12.292;2023-04-01T04:25:52;2.00;;;1.00;;
36457;SDS011;22480;50.546;12.292;2023-04-01T04:28:23;3.05;;;1.40;;
36457;SDS011;22480;50.546;12.292;2023-04-01T04:30:50;6.18;;;2.28;;
36457;SDS011;22480;50.546;12.292;2023-04-01T04:33:16;3.50;;;1.15;;
36457;SDS011;22480;50.546;12.292;2023-04-01T04:35:42;2.35;;;0.60;;
36457;SDS011;22480;50.546;12.292;2023-04-01T04:38:08;3.83;;;0.60;;
36457;SDS011;22480;50.546;12.292;2023-04-01T04:40:36;3.65;;;0.90;;
36457;SDS011;22480;50.546;12.292;2023-04-01T04:43:02;2.03;;;1.20;;
36457;SDS011;22480;50.546;12.292;2023-04-01T04:45:29;4.18;;;0.82;;
36457;SDS011;22480;50.546;12.292;2023-04-01T04:47:55;3.25;;;0.57;;
36457;SDS011;22480;50.546;12.292;2023-04-01T04:50:22;7.13;;;1.48;;
36457;SDS011;22480;50.546;12.292;2023-04-01T04:52:48;4.18;;;0.73;;
36457;SDS011;22480;50.546;12.292;2023-04-01T04:55:14;4.53;;;0.82;;
36457;SDS011;22480;50.546;12.292;2023-04-01T04:57:42;4.50;;;0.70;;
36457;SDS011;22480;50.546;12.292;2023-04-01T05:00:08;3.60;;;1.05;;
36457;SDS011;22480;50.546;12.292;2023-04-01T05:03:03;4.68;;;2.13;;
36457;SDS011;22480;50.546;12.292;2023-04-01T05:05:30;9.77;;;3.40;;
36457;SDS011;22480;50.546;12.292;2023-04-01T05:07:56;6.63;;;2.15;;
36457;SDS011;22480;50.546;12.292;2023-04-01T05:10:22;5.05;;;2.28;;
36457;SDS011;22480;50.546;12.292;2023-04-01T05:12:48;6.63;;;1.85;;
36457;SDS011;22480;50.546;12.292;2023-04-01T05:15:17;4.50;;;1.17;;
36457;SDS011;22480;50.546;12.292;2023-04-01T05:17:43;7.35;;;1.00;;
36457;SDS011;22480;50.546;12.292;2023-04-01T05:20:11;2.28;;;1.08;;
36457;SDS011;22480;50.546;12.292;2023-04-01T05:22:38;3.15;;;0.88;;
36457;SDS011;22480;50.546;12.292;2023-04-01T05:25:04;4.95;;;1.30;;
36457;SDS011;22480;50.546;12.292;2023-04-01T05:27:30;3.35;;;1.92;;
36457;SDS011;22480;50.546;12.292;2023-04-01T05:29:57;1.90;;;0.98;;
36457;SDS011;22480;50.546;12.292;2023-04-01T05:32:39;3.55;;;0.73;;
36457;SDS011;22480;50.546;12.292;2023-04-01T05:35:05;3.08;;;0.85;;
36457;SDS011;22480;50.546;12.292;2023-04-01T05:37:33;3.55;;;1.00;;
36457;SDS011;22480;50.546;12.292;2023-04-01T05:39:59;2.35;;;0.73;;
36457;SDS011;22480;50.546;12.292;2023-04-01T05:42:25;3.95;;;0.73;;
36457;SDS011;22480;50.546;12.292;2023-04-01T05:44:51;1.63;;;0.65;;
36457;SDS011;22480;50.546;12.292;2023-04-01T05:47:37;4.05;;;0.80;;
36457;SDS011;22480;50.546;12.292;2023-04-01T05:50:02;3.38;;;0.82;;
36457;SDS011;22480;50.546;12.292;2023-04-01T05:52:28;3.47;;;0.80;;
36457;SDS011;22480;50.546;12.292;2023-04-01T05:54:54;1.80;;;0.55;;
36457;SDS011;22480;50.546;12.292;2023-04-01T05:57:20;3.45;;;0.82;;
36457;SDS011;22480;50.546;12.292;2023-04-01T05:59:46;4.57;;;1.00;;
36457;SDS011;22480;50.546;12.292;2023-04-01T06:02:11;4.55;;;1.25;;
36457;SDS011;22480;50.546;12.292;2023-04-01T06:04:38;2.88;;;0.80;;
36457;SDS011;22480;50.546;12.292;2023-04-01T06:07:10;4.75;;;0.70;;
36457;SDS011;22480;50.546;12.292;2023-04-01T06:09:40;5.20;;;1.05;;
36457;SDS011;22480;50.546;12.292;2023-04-01T06:17:43;3.10;;;1.38;;
36457;SDS011;22480;50.546;12.292;2023-04-01T06:20:27;3.60;;;0.90;;
36457;SDS011;22480;50.546;12.292;2023-04-01T06:25:38;2.03;;;0.60;;
36457;SDS011;22480;50.546;12.292;2023-04-01T06:31:30;1.85;;;0.90;;
36457;SDS011;22480;50.546;12.292;2023-04-01T06:34:14;4.18;;;1.50;;
36457;SDS011;22480;50.546;12.292;2023-04-01T06:39:36;1.85;;;1.08;;
36457;SDS011;22480;50.546;12.292;2023-04-01T06:54:30;2.42;;;0.80;;
36457;SDS011;22480;50.546;12.292;2023-04-01T07:00:17;3.70;;;0.80;;
36457;SDS011;22480;50.546;12.292;2023-04-01T07:02:48;3.38;;;1.40;;
36457;SDS011;22480;50.546;12.292;2023-04-01T07:05:21;6.60;;;1.70;;
36457;SDS011;22480;50.546;12.292;2023-04-01T07:07:50;3.22;;;1.13;;
36457;SDS011;22480;50.546;12.292;2023-04-01T07:10:33;1.70;;;0.98;;
36457;SDS011;22480;50.546;12.292;2023-04-01T07:13:34;8.48;;;1.98;;
36457;SDS011;22480;50.546;12.292;2023-04-01T07:16:17;4.82;;;1.50;;
36457;SDS011;22480;50.546;12.292;2023-04-01T07:18:50;9.20;;;3.90;;
36457;SDS011;22480;50.546;12.292;2023-04-01T07:21:26;5.47;;;1.75;;
36457;SDS011;22480;50.546;12.292;2023-04-01T07:24:25;6.85;;;2.33;;
36457;SDS011;22480;50.546;12.292;2023-04-01T07:27:05;4.20;;;1.40;;
36457;SDS011;22480;50.546;12.292;2023-04-01T07:29:37;3.55;;;1.23;;
36457;SDS011;22480;50.546;12.292;2023-04-01T07:32:14;4.32;;;1.52;;
36457;SDS011;22480;50.546;12.292;2023-04-01T07:43:17;2.83;;;0.80;;
36457;SDS011;22480;50.546;12.292;2023-04-01T07:49:04;4.50;;;0.85;;
36457;SDS011;22480;50.546;12.292;2023-04-01T07:54:28;4.35;;;1.15;;
36457;SDS011;22480;50.546;12.292;2023-04-01T08:00:02;2.08;;;0.77;;
36457;SDS011;22480;50.546;12.292;2023-04-01T08:05:26;1.08;;;0.57;;
36457;SDS011;22480;50.546;12.292;2023-04-01T08:17:13;1.70;;;0.50;;
36457;SDS011;22480;50.546;12.292;2023-04-01T08:19:54;1.92;;;0.98;;
36457;SDS011;22480;50.546;12.292;2023-04-01T08:22:36;2.75;;;0.47;;
36457;SDS011;22480;50.546;12.292;2023-04-01T08:27:59;1.77;;;0.55;;
36457;SDS011;22480;50.546;12.292;2023-04-01T08:30:44;3.58;;;0.95;;
36457;SDS011;22480;50.546;12.292;2023-04-01T08:33:19;2.25;;;0.50;;
36457;SDS011;22480;50.546;12.292;2023-04-01T08:36:03;2.13;;;0.70;;
36457;SDS011;22480;50.546;12.292;2023-04-01T08:41:32;0.70;;;0.60;;
36457;SDS011;22480;50.546;12.292;2023-04-01T08:44:32;3.28;;;0.57;;
36457;SDS011;22480;50.546;12.292;2023-04-01T08:50:03;0.50;;;0.40;;
36457;SDS011;22480;50.546;12.292;2023-04-01T09:01:52;2.35;;;0.40;;
36457;SDS011;22480;50.546;12.292;2023-04-01T09:16:32;1.60;;;0.95;;
36457;SDS011;22480;50.546;12.292;2023-04-01T09:22:01;1.58;;;0.52;;
36457;SDS011;22480;50.546;12.292;2023-04-01T09:35:19;2.00;;;0.73;;
36457;SDS011;22480;50.546;12.292;2023-04-01T09:41:17;1.55;;;0.40;;
36457;SDS011;22480;50.546;12.292;2023-04-01T09:44:15;0.63;;;0.52;;
36457;SDS011;22480;50.546;12.292;2023-04-01T09:47:31;0.70;;;0.45;;
36457;SDS011;22480;50.546;12.292;2023-04-01T10:12:43;1.65;;;0.50;;
36457;SDS011;22480;50.546;12.292;2023-04-01T10:21:40;1.23;;;0.60;;
36457;SDS011;22480;50.546;12.292;2023-04-01T10:50:45;1.25;;;0.50;;
36457;SDS011;22480;50.546;12.292;2023-04-01T11:07:09;2.88;;;0.50;;
36457;SDS011;22480;50.546;12.292;2023-04-01T11:24:44;0.77;;;0.30;;
36457;SDS011;22480;50.546;12.292;2023-04-01T11:27:42;0.63;;;0.50;;
36457;SDS011;22480;50.546;12.292;2023-04-01T11:41:50;0.63;;;0.38;;
36457;SDS011;22480;50.546;12.292;2023-04-01T11:59:11;0.35;;;0.20;;
36457;SDS011;22480;50.546;12.292;2023-04-01T12:05:03;0.82;;;0.40;;
36457;SDS011;22480;50.546;12.292;2023-04-01T12:11:00;1.20;;;0.50;;
36457;SDS011;22480;50.546;12.292;2023-04-01T12:30:06;0.40;;;0.30;;
36457;SDS011;22480;50.546;12.292;2023-04-01T12:35:30;0.22;;;0.20;;
36457;SDS011;22480;50.546;12.292;2023-04-01T12:38:13;0.90;;;0.30;;
36457;SDS011;22480;50.546;12.292;2023-04-01T12:44:00;0.90;;;0.22;;
36457;SDS011;22480;50.546;12.292;2023-04-01T13:05:40;6.35;;;3.25;;
36457;SDS011;22480;50.546;12.292;2023-04-01T13:17:18;1.05;;;0.65;;
36457;SDS011;22480;50.546;12.292;2023-04-01T13:33:15;0.28;;;0.28;;
36457;SDS011;22480;50.546;12.292;2023-04-01T13:44:33;0.45;;;0.45;;
36457;SDS011;22480;50.546;12.292;2023-04-01T13:47:10;1.23;;;0.67;;
36457;SDS011;22480;50.546;12.292;2023-04-01T14:03:14;1.55;;;0.90;;
36457;SDS011;22480;50.546;12.292;2023-04-01T14:06:23;1.67;;;1.00;;
36457;SDS011;22480;50.546;12.292;2023-04-01T14:12:13;1.13;;;0.57;;
36457;SDS011;22480;50.546;12.292;2023-04-01T14:14:58;0.70;;;0.70;;
36457;SDS011;22480;50.546;12.292;2023-04-01T14:35:09;0.80;;;0.45;;
36457;SDS011;22480;50.546;12.292;2023-04-01T14:38:02;0.52;;;0.52;;
36457;SDS011;22480;50.546;12.292;2023-04-01T14:51:09;1.85;;;0.80;;
36457;SDS011;22480;50.546;12.292;2023-04-01T14:53:43;1.08;;;0.93;;
36457;SDS011;22480;50.546;12.292;2023-04-01T14:56:34;1.30;;;1.20;;
36457;SDS011;22480;50.546;12.292;2023-04-01T14:59:01;3.10;;;1.77;;
36457;SDS011;22480;50.546;12.292;2023-04-01T15:01:42;0.75;;;0.63;;
36457;SDS011;22480;50.546;12.292;2023-04-01T15:04:24;1.98;;;1.10;;
36457;SDS011;22480;50.546;12.292;2023-04-01T15:13:09;1.08;;;0.98;;
36457;SDS011;22480;50.546;12.292;2023-04-01T15:15:51;0.70;;;0.70;;
36457;SDS011;22480;50.546;12.292;2023-04-01T15:18:23;1.60;;;0.90;;
36457;SDS011;22480;50.546;12.292;2023-04-01T15:21:11;1.90;;;1.10;;
36457;SDS011;22480;50.546;12.292;2023-04-01T15:40:44;2.13;;;1.20;;
36457;SDS011;22480;50.546;12.292;2023-04-01T15:43:40;0.50;;;0.32;;
36457;SDS011;22480;50.546;12.292;2023-04-01T15:57:02;1.02;;;0.60;;
36457;SDS011;22480;50.546;12.292;2023-04-01T15:59:38;0.80;;;0.77;;
36457;SDS011;22480;50.546;12.292;2023-04-01T16:13:24;1.20;;;0.90;;
36457;SDS011;22480;50.546;12.292;2023-04-01T16:18:59;2.78;;;1.88;;
36457;SDS011;22480;50.546;12.292;2023-04-01T16:21:54;1.90;;;1.40;;
36457;SDS011;22480;50.546;12.292;2023-04-01T16:32:51;1.63;;;1.25;;
36457;SDS011;22480;50.546;12.292;2023-04-01T16:38:01;1.80;;;1.50;;
36457;SDS011;22480;50.546;12.292;2023-04-01T16:43:38;4.78;;;2.63;;
36457;SDS011;22480;50.546;12.292;2023-04-01T16:51:48;2.78;;;1.80;;
36457;SDS011;22480;50.546;12.292;2023-04-01T16:54:28;2.70;;;2.28;;
36457;SDS011;22480;50.546;12.292;2023-04-01T16:57:10;1.48;;;1.38;;
36457;SDS011;22480;50.546;12.292;2023-04-01T17:02:42;1.50;;;1.30;;
36457;SDS011;22480;50.546;12.292;2023-04-01T17:05:32;2.63;;;2.42;;
36457;SDS011;22480;50.546;12.292;2023-04-01T17:13:40;1.60;;;1.30;;
36457;SDS011;22480;50.546;12.292;2023-04-01T17:38:21;1.25;;;1.00;;
36457;SDS011;22480;50.546;12.292;2023-04-01T17:45:54;2.00;;;1.48;;
36457;SDS011;22480;50.546;12.292;2023-04-01T17:51:01;1.10;;;1.00;;
36457;SDS011;22480;50.546;12.292;2023-04-01T18:00:14;1.00;;;0.95;;
36457;SDS011;22480;50.546;12.292;2023-04-01T18:05:45;14.57;;;8.57;;
36457;SDS011;22480;50.546;12.292;2023-04-01T18:25:22;2.53;;;2.17;;
36457;SDS011;22480;50.546;12.292;2023-04-01T18:30:40;6.60;;;4.32;;
36457;SDS011;22480;50.546;12.292;2023-04-01T18:33:09;11.80;;;7.60;;
36457;SDS011;22480;50.546;12.292;2023-04-01T18:36:08;8.80;;;6.00;;
36457;SDS011;22480;50.546;12.292;2023-04-01T18:39:32;9.93;;;7.07;;
36457;SDS011;22480;50.546;12.292;2023-04-01T18:41:36;11.73;;;7.38;;
36457;SDS011;22480;50.546;12.292;2023-04-01T18:47:03;8.45;;;6.38;;
36457;SDS011;22480;50.546;12.292;2023-04-01T18:49:39;7.47;;;4.53;;
36457;SDS011;22480;50.546;12.292;2023-04-01T19:01:01;3.10;;;2.22;;
36457;SDS011;22480;50.546;12.292;2023-04-01T19:07:32;4.90;;;2.88;;
36457;SDS011;22480;50.546;12.292;2023-04-01T19:17:40;3.42;;;3.03;;
36457;SDS011;22480;50.546;12.292;2023-04-01T19:25:39;3.55;;;3.17;;
36457;SDS011;22480;50.546;12.292;2023-04-01T19:31:24;2.70;;;2.50;;
36457;SDS011;22480;50.546;12.292;2023-04-01T19:36:52;2.58;;;2.15;;
36457;SDS011;22480;50.546;12.292;2023-04-01T19:39:45;3.22;;;2.30;;
36457;SDS011;22480;50.546;12.292;2023-04-01T19:42:28;4.38;;;2.97;;
36457;SDS011;22480;50.546;12.292;2023-04-01T19:45:29;5.60;;;3.40;;
36457;SDS011;22480;50.546;12.292;2023-04-01T19:51:03;4.43;;;3.50;;
36457;SDS011;22480;50.546;12.292;2023-04-01T19:56:22;2.60;;;2.13;;
36457;SDS011;22480;50.546;12.292;2023-04-01T19:58:59;3.35;;;2.50;;
36457;SDS011;22480;50.546;12.292;2023-04-01T20:04:30;2.67;;;2.47;;
36457;SDS011;22480;50.546;12.292;2023-04-01T20:07:04;6.20;;;3.60;;
36457;SDS011;22480;50.546;12.292;2023-04-01T20:09:46;2.70;;;2.40;;
36457;SDS011;22480;50.546;12.292;2023-04-01T20:15:28;2.67;;;2.00;;
36457;SDS011;22480;50.546;12.292;2023-04-01T20:17:59;2.85;;;2.22;;
36457;SDS011;22480;50.546;12.292;2023-04-01T20:20:29;2.33;;;2.08;;
36457;SDS011;22480;50.546;12.292;2023-04-01T20:23:02;2.90;;;2.22;;
36457;SDS011;22480;50.546;12.292;2023-04-01T20:33:46;2.58;;;2.15;;
36457;SDS011;22480;50.546;12.292;2023-04-01T20:47:04;2.03;;;1.83;;
36457;SDS011;22480;50.546;12.292;2023-04-01T20:52:36;2.42;;;1.92;;
36457;SDS011;22480;50.546;12.292;2023-04-01T20:55:19;2.80;;;2.33;;
36457;SDS011;22480;50.546;12.292;2023-04-01T20:58:17;5.05;;;2.65;;
36457;SDS011;22480;50.546;12.292;2023-04-01T21:08:46;5.85;;;4.25;;
36457;SDS011;22480;50.546;12.292;2023-04-01T21:14:30;4.30;;;3.70;;
36457;SDS011;22480;50.546;12.292;2023-04-01T21:17:17;5.07;;;3.80;;
36457;SDS011;22480;50.546;12.292;2023-04-01T21:20:07;5.55;;;3.90;;
36457;SDS011;22480;50.546;12.292;2023-04-01T21:33:32;6.07;;;4.22;;
36457;SDS011;22480;50.546;12.292;2023-04-01T21:47:39;7.55;;;6.00;;
36457;SDS011;22480;50.546;12.292;2023-04-01T22:03:58;10.35;;;7.75;;
36457;SDS011;22480;50.546;12.292;2023-04-01T22:06:26;10.82;;;7.72;;
36457;SDS011;22480;50.546;12.292;2023-04-01T22:09:01;8.65;;;7.32;;
36457;SDS011;22480;50.546;12.292;2023-04-01T22:11:34;11.77;;;7.63;;
36457;SDS011;22480;50.546;12.292;2023-04-01T22:16:32;12.52;;;8.10;;
36457;SDS011;22480;50.546;12.292;2023-04-01T22:22:12;9.45;;;7.43;;
36457;SDS011;22480;50.546;12.292;2023-04-01T22:27:24;11.00;;;8.00;;
36457;SDS011;22480;50.546;12.292;2023-04-01T22:30:15;10.10;;;7.10;;
36457;SDS011;22480;50.546;12.292;2023-04-01T22:41:14;11.57;;;8.35;;
36457;SDS011;22480;50.546;12.292;2023-04-01T22:44:05;13.30;;;9.25;;
36457;SDS011;22480;50.546;12.292;2023-04-01T22:47:00;14.05;;;9.70;;
36457;SDS011;22480;50.546;12.292;2023-04-01T22:54:56;16.52;;;10.20;;
36457;SDS011;22480;50.546;12.292;2023-04-01T22:59:59;16.73;;;10.32;;
36457;SDS011;22480;50.546;12.292;2023-04-01T23:05:44;16.52;;;10.82;;
36457;SDS011;22480;50.546;12.292;2023-04-01T23:08:38;14.60;;;9.63;;
36457;SDS011;22480;50.546;12.292;2023-04-01T23:13:52;11.65;;;8.25;;
36457;SDS011;22480;50.546;12.292;2023-04-01T23:16:33;12.10;;;8.35;;
36457;SDS011;22480;50.546;12.292;2023-04-01T23:19:13;14.63;;;9.23;;
36457;SDS011;22480;50.546;12.292;2023-04-01T23:21:46;12.88;;;9.07;;
36457;SDS011;22480;50.546;12.292;2023-04-01T23:24:50;12.77;;;8.20;;
36457;SDS011;22480;50.546;12.292;2023-04-01T23:27:21;12.55;;;8.25;;
36457;SDS011;22480;50.546;12.292;2023-04-01T23:29:53;13.80;;;9.25;;
36457;SDS011;22480;50.546;12.292;2023-04-01T23:32:19;13.82;;;9.02;;
36457;SDS011;22480;50.546;12.292;2023-04-01T23:34:51;11.18;;;7.63;;
36457;SDS011;22480;50.546;12.292;2023-04-01T23:37:19;13.40;;;7.50;;
36457;SDS011;22480;50.546;12.292;2023-04-01T23:39:50;12.52;;;7.68;;
36457;SDS011;22480;50.546;12.292;2023-04-01T23:42:25;10.35;;;7.22;;
36457;SDS011;22480;50.546;12.292;2023-04-01T23:44:55;11.18;;;7.50;;
36457;SDS011;22480;50.546;12.292;2023-04-01T23:47:29;12.02;;;7.88;;
36457;SDS011;22480;50.546;12.292;2023-04-01T23:50:01;15.50;;;9.18;;
36457;SDS011;22480;50.546;12.292;2023-04-01T23:52:35;14.52;;;8.30;;
36457;SDS011;22480;50.546;12.292;2023-04-01T23:57:42;13.38;;;8.48;;
